Time;durP1;ratioP1;P1;durP2;ratioP2;P2;SDS_P1;SDS_P2;PMS_P1;PMS_P2;Temp;Humidity;BMP_temperature;BMP_pressure;BME280_temperature;BME280_humidity;BME280_pressure;Samples;Min_cycle;Max_cycle;Signal;HPM_P1;HPM_P2
2022/08/10 00:00:22;;;;;;;3.90;3.30;;;20.70;54.60;;;;;;5078766;28;20457;-78
2022/08/10 00:02:50;;;;;;;3.10;2.90;;;20.70;54.80;;;;;;5078844;28;20984;-78
2022/08/10 00:05:17;;;;;;;3.70;3.40;;;20.60;55.20;;;;;;5078216;28;20471;-78
2022/08/10 00:07:44;;;;;;;3.03;2.83;;;20.60;55.30;;;;;;5078166;28;20478;-78
2022/08/10 00:10:14;;;;;;;3.10;2.80;;;20.60;55.40;;;;;;5079133;28;20507;-78
2022/08/10 00:12:45;;;;;;;3.13;2.93;;;20.60;55.40;;;;;;5078294;28;20448;-78
2022/08/10 00:15:14;;;;;;;3.53;3.33;;;20.50;55.60;;;;;;5077646;28;20615;-78
2022/08/10 00:17:41;;;;;;;2.77;2.57;;;20.50;56.00;;;;;;5078268;28;20480;-79
2022/08/10 00:20:09;;;;;;;3.10;2.90;;;20.50;55.90;;;;;;5078246;28;20797;-79
2022/08/10 00:22:36;;;;;;;3.20;3.00;;;20.50;56.00;;;;;;5078569;28;20530;-79
2022/08/10 00:25:04;;;;;;;2.67;2.53;;;20.40;56.10;;;;;;5079018;28;20449;-79
2022/08/10 00:27:33;;;;;;;4.23;2.93;;;20.40;56.30;;;;;;5078702;28;20479;-79
2022/08/10 00:30:00;;;;;;;2.90;2.80;;;20.40;56.50;;;;;;5078869;28;20446;-78
2022/08/10 00:32:27;;;;;;;3.17;3.03;;;20.40;56.70;;;;;;5078214;28;20449;-79
2022/08/10 00:34:54;;;;;;;3.13;2.83;;;20.30;57.10;;;;;;5088986;28;20425;-79
2022/08/10 00:37:20;;;;;;;3.13;2.93;;;20.40;57.00;;;;;;5078677;28;20481;-79
2022/08/10 00:39:47;;;;;;;4.33;2.80;;;20.40;57.10;;;;;;5078517;28;20457;-79
2022/08/10 00:42:15;;;;;;;3.63;3.33;;;20.30;57.30;;;;;;5078487;28;20457;-79
2022/08/10 00:44:46;;;;;;;3.23;3.03;;;20.30;57.60;;;;;;5077734;28;20947;-78
2022/08/10 00:47:14;;;;;;;3.03;2.83;;;20.30;57.70;;;;;;5077914;28;20478;-78
2022/08/10 00:49:41;;;;;;;3.63;3.33;;;20.30;58.30;;;;;;5078252;28;20538;-79
2022/08/10 00:52:08;;;;;;;3.73;3.50;;;20.30;58.60;;;;;;5078245;28;20481;-78
2022/08/10 00:54:37;;;;;;;3.00;2.80;;;20.20;58.00;;;;;;5077291;28;20444;-79
2022/08/10 00:57:04;;;;;;;3.10;2.90;;;20.30;58.10;;;;;;5077013;28;20510;-78
2022/08/10 00:59:32;;;;;;;3.20;3.00;;;20.20;58.20;;;;;;5077036;28;20485;-78
2022/08/10 01:02:01;;;;;;;3.77;3.47;;;20.20;58.40;;;;;;5076797;28;20449;-78
2022/08/10 01:04:27;;;;;;;3.80;3.60;;;20.20;58.60;;;;;;5077030;28;20518;-79
2022/08/10 01:07:06;;;;;;;2.87;2.77;;;20.20;58.70;;;;;;5076921;28;20836;-78
2022/08/10 01:09:43;;;;;;;3.90;3.70;;;20.20;59.00;;;;;;5077606;28;20458;-78
2022/08/10 01:12:16;;;;;;;3.60;3.30;;;20.10;59.00;;;;;;5077341;28;20465;-78
2022/08/10 01:14:52;;;;;;;4.40;3.90;;;20.10;59.50;;;;;;5077891;28;20448;-77
2022/08/10 01:17:26;;;;;;;3.30;3.07;;;20.10;59.60;;;;;;5078118;28;20562;-77
2022/08/10 01:20:02;;;;;;;2.70;2.50;;;20.00;59.70;;;;;;5077252;28;20448;-78
2022/08/10 01:23:22;;;;;;;4.03;3.10;;;20.00;59.90;;;;;;5076176;28;20502;-79
2022/08/10 01:26:15;;;;;;;4.60;4.30;;;20.00;60.30;;;;;;5049686;28;20481;-79
2022/08/10 01:28:56;;;;;;;2.97;2.80;;;20.00;60.30;;;;;;5077213;28;20471;-79
2022/08/10 01:31:33;;;;;;;3.17;2.87;;;19.90;60.50;;;;;;5077868;28;20471;-78
2022/08/10 01:34:07;;;;;;;3.27;3.17;;;19.90;61.00;;;;;;5076822;28;20459;-79
2022/08/10 01:36:41;;;;;;;2.90;2.70;;;19.80;61.50;;;;;;5076536;28;20444;-78
2022/08/10 01:39:10;;;;;;;4.03;3.63;;;19.80;61.50;;;;;;5076614;28;20495;-78
2022/08/10 01:41:42;;;;;;;3.37;3.17;;;19.70;62.00;;;;;;5076298;28;20458;-78
2022/08/10 01:44:10;;;;;;;3.20;3.00;;;19.70;62.50;;;;;;5075503;28;21000;-78
2022/08/10 01:46:42;;;;;;;3.20;2.90;;;19.70;63.50;;;;;;5076206;28;20449;-80
2022/08/10 01:49:11;;;;;;;3.60;3.37;;;19.70;63.10;;;;;;5076326;28;20814;-78
2022/08/10 01:51:43;;;;;;;3.00;2.80;;;19.60;63.20;;;;;;5076050;28;20523;-78
2022/08/10 01:54:13;;;;;;;3.17;2.97;;;19.60;63.70;;;;;;5076371;28;20442;-78
2022/08/10 01:56:42;;;;;;;3.30;3.00;;;19.60;64.00;;;;;;5075795;28;20454;-78
2022/08/10 01:59:13;;;;;;;3.90;3.50;;;19.60;64.30;;;;;;5076089;28;20491;-78
2022/08/10 02:01:46;;;;;;;4.07;3.77;;;19.50;64.40;;;;;;5075845;28;20464;-78
2022/08/10 02:04:16;;;;;;;3.83;3.63;;;19.50;64.40;;;;;;5075734;28;20455;-78
2022/08/10 02:06:45;;;;;;;3.10;2.90;;;19.60;65.00;;;;;;5077030;28;20824;-76
2022/08/10 02:09:16;;;;;;;2.73;2.57;;;19.50;65.20;;;;;;5079752;28;20443;-78
2022/08/10 02:11:44;;;;;;;4.20;3.90;;;19.50;65.20;;;;;;5075540;28;20453;-78
2022/08/10 02:14:14;;;;;;;3.40;3.10;;;19.50;65.60;;;;;;5075589;28;20453;-78
2022/08/10 02:16:44;;;;;;;3.00;2.80;;;19.50;65.80;;;;;;5082406;28;20432;-77
2022/08/10 02:19:14;;;;;;;2.83;2.73;;;19.40;66.00;;;;;;5081113;28;20482;-78
2022/08/10 02:21:42;;;;;;;3.40;3.20;;;19.40;66.40;;;;;;5077933;28;20447;-78
2022/08/10 02:24:12;;;;;;;5.00;3.00;;;19.40;66.70;;;;;;5076612;28;20535;-78
2022/08/10 02:26:40;;;;;;;3.10;2.90;;;19.30;67.10;;;;;;5076815;28;20952;-78
2022/08/10 02:29:08;;;;;;;4.50;3.00;;;19.40;66.90;;;;;;5076467;28;20466;-78
2022/08/10 02:31:36;;;;;;;3.53;3.37;;;19.40;67.20;;;;;;5076504;28;20454;-78
2022/08/10 02:34:06;;;;;;;3.97;3.77;;;19.40;67.30;;;;;;5076103;28;20447;-78
2022/08/10 02:36:34;;;;;;;3.90;3.07;;;19.40;67.40;;;;;;5075723;28;20459;-78
2022/08/10 02:39:04;;;;;;;3.10;2.90;;;19.40;67.60;;;;;;5076264;28;20684;-78
2022/08/10 02:41:37;;;;;;;3.30;3.10;;;19.40;67.80;;;;;;5076552;28;20450;-78
2022/08/10 02:44:09;;;;;;;3.20;3.00;;;19.40;68.00;;;;;;5076003;28;20964;-78
2022/08/10 02:46:41;;;;;;;3.23;3.03;;;19.40;68.00;;;;;;5076119;28;20453;-78
2022/08/10 02:49:18;;;;;;;3.37;3.17;;;19.40;68.30;;;;;;5076633;28;20463;-78
2022/08/10 02:51:49;;;;;;;3.50;3.20;;;19.30;68.30;;;;;;5075589;28;20455;-78
2022/08/10 02:54:20;;;;;;;3.53;3.33;;;19.30;68.50;;;;;;5076042;28;20456;-78
2022/08/10 02:56:54;;;;;;;3.70;3.20;;;19.30;68.60;;;;;;5077215;28;20938;-78
2022/08/10 02:59:25;;;;;;;3.27;3.10;;;19.30;69.30;;;;;;5080298;28;20482;-78
2022/08/10 03:01:57;;;;;;;4.00;3.80;;;19.30;70.00;;;;;;5079933;28;20495;-78
2022/08/10 03:04:30;;;;;;;3.37;3.27;;;19.30;70.20;;;;;;5080041;28;20443;-78
2022/08/10 03:07:01;;;;;;;5.23;3.27;;;19.30;70.80;;;;;;5079972;28;20494;-78
2022/08/10 03:09:31;;;;;;;3.30;3.10;;;19.20;70.60;;;;;;5090608;28;20451;-78
2022/08/10 03:11:59;;;;;;;3.50;3.30;;;19.20;70.70;;;;;;5060329;28;20938;-78
2022/08/10 03:14:28;;;;;;;4.20;3.50;;;19.20;71.60;;;;;;5060701;28;20452;-78
2022/08/10 03:16:56;;;;;;;3.47;3.27;;;19.20;71.10;;;;;;5080775;28;20973;-78
2022/08/10 03:19:25;;;;;;;4.17;3.97;;;19.20;71.70;;;;;;5080416;28;20519;-78
2022/08/10 03:21:54;;;;;;;3.63;3.33;;;19.20;72.10;;;;;;5080091;28;20459;-78
2022/08/10 03:24:24;;;;;;;3.93;3.67;;;19.10;71.90;;;;;;5079170;28;20451;-78
2022/08/10 03:26:52;;;;;;;4.20;3.80;;;19.10;72.30;;;;;;5080475;28;20494;-76
2022/08/10 03:29:21;;;;;;;4.77;4.47;;;19.10;71.60;;;;;;5080820;28;20440;-77
2022/08/10 03:31:51;;;;;;;3.63;3.43;;;19.10;72.10;;;;;;5079233;28;20460;-78
2022/08/10 03:34:20;;;;;;;3.60;3.30;;;19.10;71.70;;;;;;5078916;28;20450;-78
2022/08/10 03:36:49;;;;;;;3.43;3.23;;;19.10;72.70;;;;;;5076484;28;20537;-78
2022/08/10 03:39:16;;;;;;;4.10;3.80;;;19.00;72.90;;;;;;5079279;28;20479;-78
2022/08/10 03:41:47;;;;;;;3.27;3.07;;;19.00;72.70;;;;;;5078634;28;20451;-78
2022/08/10 03:44:19;;;;;;;3.50;3.30;;;19.00;72.40;;;;;;5078736;28;20466;-78
2022/08/10 03:46:47;;;;;;;3.67;3.47;;;19.00;71.90;;;;;;5079301;28;20451;-78
2022/08/10 03:49:14;;;;;;;3.80;3.60;;;19.00;72.60;;;;;;5078484;28;20458;-78
2022/08/10 03:51:42;;;;;;;3.93;3.73;;;19.00;73.20;;;;;;5078216;28;20995;-78
2022/08/10 03:54:10;;;;;;;3.50;3.20;;;19.00;73.60;;;;;;5078007;28;20454;-78
2022/08/10 03:56:38;;;;;;;3.67;3.47;;;18.90;73.40;;;;;;5077908;28;20525;-78
2022/08/10 03:59:06;;;;;;;3.83;3.63;;;18.90;73.50;;;;;;5082389;28;20463;-78
2022/08/10 04:01:33;;;;;;;3.83;3.63;;;18.90;73.90;;;;;;5086046;28;20447;-78
2022/08/10 04:04:00;;;;;;;5.23;3.37;;;18.80;74.00;;;;;;5079384;28;20455;-78
2022/08/10 04:06:27;;;;;;;3.37;3.17;;;18.80;74.60;;;;;;5079526;28;20469;-78
2022/08/10 04:08:54;;;;;;;3.13;2.93;;;18.80;74.20;;;;;;5079047;28;20471;-78
2022/08/10 04:11:23;;;;;;;5.53;3.73;;;18.80;74.50;;;;;;5078896;28;20470;-78
2022/08/10 04:13:49;;;;;;;3.97;3.77;;;18.80;74.60;;;;;;5078235;28;20450;-78
2022/08/10 04:16:16;;;;;;;3.80;3.50;;;18.80;75.60;;;;;;5076570;28;20948;-80
2022/08/10 04:18:43;;;;;;;4.00;3.70;;;18.80;76.00;;;;;;5075699;28;21000;-80
2022/08/10 04:21:14;;;;;;;3.90;3.70;;;18.80;76.00;;;;;;5076534;28;20459;-78
2022/08/10 04:23:44;;;;;;;3.73;3.53;;;18.80;75.60;;;;;;5077459;28;20446;-79
2022/08/10 04:26:11;;;;;;;4.13;3.93;;;18.80;75.70;;;;;;5075604;28;20451;-80
2022/08/10 04:28:40;;;;;;;3.60;3.30;;;18.80;75.30;;;;;;5075483;28;20471;-79
2022/08/10 04:31:09;;;;;;;3.47;3.17;;;18.80;75.90;;;;;;5075722;28;20451;-79
2022/08/10 04:33:41;;;;;;;3.27;3.07;;;18.80;76.10;;;;;;5075607;28;20448;-79
2022/08/10 04:36:11;;;;;;;3.47;3.27;;;18.80;76.70;;;;;;5074623;28;20454;-79
2022/08/10 04:38:38;;;;;;;3.50;3.30;;;18.80;76.00;;;;;;5075393;28;20498;-79
2022/08/10 04:41:05;;;;;;;4.63;3.90;;;18.80;75.30;;;;;;5075686;28;20458;-79
2022/08/10 04:43:32;;;;;;;3.03;2.80;;;18.90;75.70;;;;;;5075291;28;20454;-79
2022/08/10 04:46:01;;;;;;;4.53;4.23;;;18.90;74.70;;;;;;5074875;28;20455;-79
2022/08/10 04:48:27;;;;;;;4.10;3.70;;;18.90;75.10;;;;;;5075219;28;20474;-79
2022/08/10 04:50:54;;;;;;;3.40;3.27;;;18.90;76.10;;;;;;5080264;28;20439;-79
2022/08/10 04:53:21;;;;;;;3.60;3.30;;;18.90;75.80;;;;;;5083094;28;20447;-79
2022/08/10 04:55:48;;;;;;;3.67;3.47;;;19.00;75.70;;;;;;5075050;28;20451;-79
2022/08/10 04:58:15;;;;;;;3.50;3.17;;;18.90;75.80;;;;;;5076158;28;20471;-79
2022/08/10 05:00:42;;;;;;;3.30;3.10;;;19.00;75.90;;;;;;5075641;28;20483;-79
2022/08/10 05:03:10;;;;;;;5.63;3.67;;;19.00;75.50;;;;;;5075359;28;20447;-79
2022/08/10 05:05:36;;;;;;;3.80;3.57;;;19.00;75.70;;;;;;5075059;28;20451;-79
2022/08/10 05:08:04;;;;;;;4.37;4.00;;;19.00;75.30;;;;;;5075349;28;20918;-79
2022/08/10 05:10:31;;;;;;;4.47;4.17;;;19.10;76.40;;;;;;5075113;28;20455;-79
2022/08/10 05:12:58;;;;;;;4.77;4.40;;;19.10;75.00;;;;;;5075480;28;20457;-79
2022/08/10 05:15:26;;;;;;;4.93;4.43;;;19.10;75.20;;;;;;5074449;28;20454;-79
2022/08/10 05:17:52;;;;;;;4.50;4.20;;;19.20;74.90;;;;;;5075051;28;20467;-79
2022/08/10 05:20:21;;;;;;;5.50;5.00;;;19.20;74.20;;;;;;5074540;28;20494;-79
2022/08/10 05:22:47;;;;;;;5.67;5.13;;;19.20;74.60;;;;;;5075726;28;20541;-79
2022/08/10 05:25:16;;;;;;;5.10;4.70;;;19.20;74.10;;;;;;5074354;28;20501;-79
2022/08/10 05:27:44;;;;;;;4.40;4.07;;;19.30;75.10;;;;;;5074370;28;20480;-79
2022/08/10 05:30:13;;;;;;;4.20;3.90;;;19.30;75.20;;;;;;5075070;28;20450;-79
2022/08/10 05:32:40;;;;;;;4.03;3.80;;;19.40;74.60;;;;;;5075398;28;20452;-79
2022/08/10 05:35:07;;;;;;;5.40;4.70;;;19.40;74.80;;;;;;5075100;28;20965;-79
2022/08/10 05:37:36;;;;;;;3.90;3.70;;;19.50;74.60;;;;;;5074523;28;21018;-79
2022/08/10 05:40:05;;;;;;;3.57;3.23;;;19.50;73.90;;;;;;5075528;28;20471;-79
2022/08/10 05:42:32;;;;;;;3.30;3.17;;;19.60;74.40;;;;;;5075383;28;20518;-79
2022/08/10 05:44:59;;;;;;;4.13;3.77;;;19.70;73.20;;;;;;5087911;28;20452;-78
2022/08/10 05:47:26;;;;;;;3.33;3.10;;;19.80;73.50;;;;;;5075212;28;20472;-78
2022/08/10 05:49:54;;;;;;;3.47;3.23;;;19.80;73.00;;;;;;5074494;28;20444;-79
2022/08/10 05:52:20;;;;;;;4.07;3.77;;;19.80;71.90;;;;;;5074454;28;21025;-79
2022/08/10 05:54:50;;;;;;;3.77;3.57;;;19.90;73.00;;;;;;5074324;28;20453;-79
2022/08/10 05:57:19;;;;;;;3.80;3.30;;;19.90;72.40;;;;;;5074024;28;20456;-79
2022/08/10 05:59:49;;;;;;;5.23;3.50;;;19.90;72.10;;;;;;5074067;28;20476;-79
2022/08/10 06:02:24;;;;;;;3.73;3.53;;;20.00;71.60;;;;;;5074902;28;20447;-79
2022/08/10 06:04:52;;;;;;;8.20;3.63;;;20.10;72.10;;;;;;5074192;28;20455;-79
2022/08/10 06:07:20;;;;;;;3.63;3.33;;;20.20;72.20;;;;;;5074097;28;20474;-79
2022/08/10 06:09:50;;;;;;;3.40;2.97;;;20.20;71.40;;;;;;5074516;28;20447;-82
2022/08/10 06:12:19;;;;;;;3.00;2.80;;;20.30;71.20;;;;;;5074558;28;20448;-80
2022/08/10 06:14:59;;;;;;;4.00;3.20;;;20.30;70.30;;;;;;5074932;28;20459;-82
2022/08/10 06:17:27;;;;;;;3.00;2.80;;;20.40;70.90;;;;;;5074892;28;20460;-82
2022/08/10 06:19:55;;;;;;;3.53;3.23;;;20.40;71.80;;;;;;5075236;28;20477;-82
2022/08/10 06:22:23;;;;;;;3.87;3.57;;;20.40;70.10;;;;;;5074856;28;20449;-80
2022/08/10 06:24:51;;;;;;;3.30;3.03;;;20.50;70.10;;;;;;5074597;28;20449;-80
2022/08/10 06:27:18;;;;;;;3.20;3.00;;;20.60;70.10;;;;;;5075401;28;20480;-82
2022/08/10 06:29:46;;;;;;;3.67;3.37;;;20.70;69.40;;;;;;5074326;28;20444;-80
2022/08/10 06:32:14;;;;;;;3.33;3.03;;;20.80;70.00;;;;;;5077317;28;20453;-80
2022/08/10 06:34:46;;;;;;;2.80;2.60;;;20.80;68.80;;;;;;5078646;28;20464;-81
2022/08/10 06:37:16;;;;;;;3.73;3.50;;;20.90;69.10;;;;;;5091916;28;20553;-82
2022/08/10 06:39:44;;;;;;;3.70;3.10;;;20.90;67.90;;;;;;5081138;28;20464;-81
2022/08/10 06:42:17;;;;;;;2.70;2.50;;;20.90;68.70;;;;;;5087334;28;20451;-82
2022/08/10 06:44:51;;;;;;;3.47;3.27;;;21.00;68.00;;;;;;5078113;28;20446;-82
2022/08/10 06:47:22;;;;;;;3.33;3.00;;;21.00;67.60;;;;;;5076531;28;20461;-82
2022/08/10 06:49:53;;;;;;;3.13;2.83;;;21.20;67.90;;;;;;5077316;28;20481;-79
2022/08/10 06:52:22;;;;;;;3.30;3.10;;;21.20;67.50;;;;;;5077156;28;20455;-79
2022/08/10 06:54:53;;;;;;;3.93;2.87;;;21.30;67.20;;;;;;5076095;28;20440;-78
2022/08/10 06:57:23;;;;;;;3.17;2.97;;;21.40;66.60;;;;;;5077652;28;20458;-81
2022/08/10 06:59:52;;;;;;;2.97;2.77;;;21.40;67.10;;;;;;5076488;28;20480;-81
2022/08/10 07:02:50;;;;;;;4.90;3.10;;;21.50;66.30;;;;;;5077497;28;20453;-80
2022/08/10 07:05:57;;;;;;;4.50;3.00;;;21.50;66.40;;;;;;5075325;28;20934;-81
2022/08/10 07:08:36;;;;;;;3.30;2.93;;;21.60;66.40;;;;;;5073921;28;20475;-81
2022/08/10 07:11:14;;;;;;;3.30;2.53;;;21.70;65.90;;;;;;5078080;28;20451;-81
2022/08/10 07:13:50;;;;;;;3.30;3.00;;;21.80;65.50;;;;;;5077757;28;20507;-81
2022/08/10 07:16:28;;;;;;;4.50;3.37;;;21.80;65.80;;;;;;5078093;28;20842;-81
2022/08/10 07:19:14;;;;;;;3.00;2.80;;;21.80;67.30;;;;;;5077767;28;20467;-81
2022/08/10 07:21:43;;;;;;;2.70;2.50;;;21.90;65.10;;;;;;5077514;28;20458;-81
2022/08/10 07:24:12;;;;;;;3.10;2.90;;;21.90;64.80;;;;;;5077756;28;20456;-81
2022/08/10 07:26:44;;;;;;;2.93;2.77;;;22.00;65.40;;;;;;5078264;28;20540;-81
2022/08/10 07:29:14;;;;;;;3.10;2.90;;;22.10;65.40;;;;;;5089636;28;20496;-81
2022/08/10 07:31:42;;;;;;;5.43;3.17;;;22.20;64.80;;;;;;5078358;28;20446;-81
2022/08/10 07:34:10;;;;;;;3.23;2.83;;;22.20;65.80;;;;;;5077872;28;20533;-82
2022/08/10 07:36:39;;;;;;;2.90;2.70;;;22.30;65.70;;;;;;5073930;28;20451;-78
2022/08/10 07:39:07;;;;;;;2.90;2.70;;;22.30;64.10;;;;;;5075527;28;20467;-82
2022/08/10 07:41:38;;;;;;;3.03;2.57;;;22.40;63.90;;;;;;5071480;28;20855;-85
2022/08/10 07:44:06;;;;;;;3.20;2.87;;;22.50;64.10;;;;;;5075982;28;20975;-85
2022/08/10 07:53:10;;;;;;;2.60;2.50;;;22.80;64.10;;;;;;5064463;28;20557;-85
2022/08/10 07:55:57;;;;;;;2.83;2.63;;;22.90;63.20;;;;;;5076547;28;20879;-85
2022/08/10 08:26:22;;;;;;;4.87;2.90;;;23.80;60.50;;;;;;5494570;22;20571;-79
2022/08/10 08:28:50;;;;;;;3.80;3.47;;;23.90;59.20;;;;;;5099573;28;20480;-81
2022/08/10 08:31:18;;;;;;;4.57;2.70;;;23.90;58.50;;;;;;5102177;28;20447;-81
2022/08/10 08:33:46;;;;;;;2.50;2.30;;;23.90;59.30;;;;;;5101703;28;20448;-83
2022/08/10 08:36:16;;;;;;;3.93;2.83;;;23.90;59.30;;;;;;5103186;28;20458;-84
2022/08/10 08:38:44;;;;;;;3.57;2.20;;;24.00;60.20;;;;;;5102451;28;20488;-85
2022/08/10 08:41:28;;;;;;;3.93;2.77;;;24.20;59.60;;;;;;5103364;28;20485;-85
2022/08/10 08:44:06;;;;;;;3.17;2.83;;;24.30;57.50;;;;;;5104528;28;20451;-83
2022/08/10 08:57:00;;;;;;;2.77;2.20;;;24.70;56.60;;;;;;5046854;28;20452;-84
2022/08/10 09:09:32;;;;;;;2.10;2.00;;;25.10;54.30;;;;;;5150076;23;20500;-80
2022/08/10 09:12:13;;;;;;;3.10;2.80;;;25.10;53.60;;;;;;5099852;28;20454;-80
2022/08/10 09:14:48;;;;;;;3.20;2.63;;;25.20;53.00;;;;;;5081873;28;20454;-81
2022/08/10 09:17:20;;;;;;;2.30;2.20;;;25.20;53.20;;;;;;5077805;28;20483;-81
2022/08/10 09:19:52;;;;;;;2.37;2.07;;;25.20;52.50;;;;;;5082143;28;20453;-80
2022/08/10 09:22:25;;;;;;;2.70;2.50;;;25.40;53.50;;;;;;5077777;28;20854;-81
2022/08/10 09:24:57;;;;;;;2.00;1.90;;;25.40;50.70;;;;;;5073493;28;20446;-83
2022/08/10 09:27:39;;;;;;;2.13;2.03;;;25.60;52.60;;;;;;5075829;28;20472;-83
2022/08/10 09:30:09;;;;;;;3.30;2.40;;;25.60;51.40;;;;;;5074942;28;21094;-82
2022/08/10 09:32:41;;;;;;;2.87;2.77;;;25.80;50.90;;;;;;5075330;28;20443;-83
2022/08/10 09:35:16;;;;;;;2.90;2.70;;;25.80;50.90;;;;;;5074297;28;20819;-83
2022/08/10 09:37:47;;;;;;;2.40;2.20;;;25.90;52.50;;;;;;5074793;28;20472;-81
2022/08/10 09:40:24;;;;;;;2.37;2.17;;;26.00;51.30;;;;;;5074853;28;20488;-81
2022/08/10 09:42:59;;;;;;;2.50;2.30;;;26.20;49.50;;;;;;5074754;28;20458;-82
2022/08/10 09:45:35;;;;;;;3.53;2.17;;;26.40;51.60;;;;;;5074704;28;20455;-83
2022/08/10 09:48:11;;;;;;;2.70;2.50;;;26.50;48.90;;;;;;5075162;28;20472;-83
2022/08/10 09:50:51;;;;;;;2.60;2.40;;;26.60;49.70;;;;;;5074182;28;20485;-82
2022/08/10 09:53:26;;;;;;;2.63;2.43;;;26.80;48.40;;;;;;5074802;28;20471;-81
2022/08/10 09:56:06;;;;;;;2.60;2.50;;;27.00;48.90;;;;;;5074490;28;20456;-82
2022/08/10 09:58:40;;;;;;;2.67;2.47;;;27.10;48.90;;;;;;5074486;28;20479;-82
2022/08/10 10:01:12;;;;;;;3.13;2.90;;;27.10;47.20;;;;;;5074545;28;20484;-82
2022/08/10 10:03:52;;;;;;;2.97;2.50;;;27.10;48.00;;;;;;5078180;28;20442;-83
2022/08/10 10:06:28;;;;;;;3.10;2.90;;;27.20;47.60;;;;;;5079971;28;20458;-84
2022/08/10 10:09:00;;;;;;;10.53;3.00;;;27.30;48.80;;;;;;5081169;28;20475;-82
2022/08/10 10:11:36;;;;;;;4.20;2.97;;;27.40;47.50;;;;;;5081655;28;20450;-82
2022/08/10 10:14:12;;;;;;;2.20;2.10;;;27.60;49.00;;;;;;5082426;28;20451;-82
2022/08/10 10:16:52;;;;;;;2.63;2.30;;;27.90;46.60;;;;;;5081713;28;20458;-82
2022/08/10 10:19:38;;;;;;;1.93;1.83;;;28.10;45.00;;;;;;5081707;28;20436;-82
2022/08/10 10:22:27;;;;;;;2.43;2.17;;;28.30;43.30;;;;;;5081309;28;20490;-82
2022/08/10 10:25:01;;;;;;;2.00;1.90;;;28.40;45.00;;;;;;5080704;28;20435;-83
2022/08/10 10:27:40;;;;;;;3.03;2.83;;;28.40;43.80;;;;;;5081170;28;20467;-82
2022/08/10 10:30:10;;;;;;;3.13;2.90;;;28.60;44.40;;;;;;5081290;28;20447;-82
2022/08/10 10:32:47;;;;;;;3.00;2.73;;;28.80;44.40;;;;;;5081880;28;20513;-82
2022/08/10 10:35:23;;;;;;;3.13;2.00;;;29.10;44.90;;;;;;5081567;28;20445;-83
2022/08/10 10:37:54;;;;;;;2.63;2.43;;;29.20;44.40;;;;;;5084576;28;20475;-82
2022/08/10 10:40:23;;;;;;;2.33;2.13;;;29.50;42.50;;;;;;5084936;28;20836;-82
2022/08/10 10:43:05;;;;;;;2.63;2.40;;;29.70;41.70;;;;;;5082155;28;20454;-83
2022/08/10 10:45:38;;;;;;;2.43;2.33;;;29.90;42.40;;;;;;5081096;28;20455;-84
2022/08/10 10:48:16;;;;;;;2.77;2.57;;;30.00;42.10;;;;;;5081423;28;20471;-83
2022/08/10 10:50:55;;;;;;;3.60;2.00;;;30.10;40.90;;;;;;5081135;28;20429;-83
2022/08/10 10:53:27;;;;;;;2.47;2.13;;;30.40;40.80;;;;;;5092108;28;20436;-83
2022/08/10 10:56:02;;;;;;;2.03;1.93;;;30.50;38.70;;;;;;5082254;28;20456;-82
2022/08/10 10:58:38;;;;;;;2.33;2.23;;;30.50;39.10;;;;;;5081409;28;21019;-82
2022/08/10 11:01:11;;;;;;;2.30;2.20;;;30.40;39.00;;;;;;5081451;28;20480;-83
2022/08/10 11:03:52;;;;;;;1.90;1.80;;;30.30;40.00;;;;;;5080732;28;20451;-83
2022/08/10 11:06:27;;;;;;;4.10;2.30;;;30.10;40.10;;;;;;5081407;28;20951;-84
2022/08/10 11:09:00;;;;;;;3.23;2.57;;;30.10;39.70;;;;;;5080717;28;20568;-83
2022/08/10 11:11:31;;;;;;;2.30;2.20;;;30.10;39.30;;;;;;5080784;28;20469;-83
2022/08/10 11:14:09;;;;;;;1.93;1.83;;;29.70;37.50;;;;;;5080643;28;20454;-82
2022/08/10 11:16:42;;;;;;;2.37;2.03;;;30.00;40.10;;;;;;5079911;28;20479;-83
2022/08/10 11:19:17;;;;;;;2.83;2.20;;;30.50;39.10;;;;;;5077943;28;20488;-84
2022/08/10 11:21:54;;;;;;;2.20;2.10;;;31.20;39.70;;;;;;5078108;28;20488;-82
2022/08/10 11:24:32;;;;;;;2.30;2.10;;;31.80;35.90;;;;;;5078008;28;20438;-84
2022/08/10 11:27:08;;;;;;;2.20;1.93;;;31.90;34.40;;;;;;5077721;28;20445;-84
2022/08/10 11:29:42;;;;;;;2.27;2.13;;;32.50;36.00;;;;;;5077263;28;20465;-83
2022/08/10 11:32:23;;;;;;;2.60;2.40;;;32.80;33.80;;;;;;5078091;28;20462;-83
2022/08/10 11:34:56;;;;;;;2.17;1.90;;;33.20;33.80;;;;;;5077960;28;20454;-84
2022/08/10 11:37:32;;;;;;;2.33;2.23;;;33.60;33.00;;;;;;5077646;28;20471;-83
2022/08/10 11:40:04;;;;;;;4.17;1.97;;;34.20;34.40;;;;;;5077798;28;20816;-84
2022/08/10 11:42:40;;;;;;;2.13;2.00;;;34.80;32.90;;;;;;5077437;28;20479;-83
2022/08/10 11:45:16;;;;;;;2.93;1.73;;;35.00;32.00;;;;;;5087482;28;20435;-83
2022/08/10 11:47:48;;;;;;;2.07;1.97;;;35.20;30.80;;;;;;5077220;28;20478;-84
2022/08/10 11:50:21;;;;;;;2.43;2.23;;;35.80;33.70;;;;;;5077470;28;20455;-83
2022/08/10 11:52:55;;;;;;;2.20;2.10;;;36.10;30.60;;;;;;5076982;28;20451;-84
2022/08/10 11:55:24;;;;;;;2.07;1.97;;;36.40;30.00;;;;;;5076702;28;20458;-84
2022/08/10 11:57:54;;;;;;;3.07;1.90;;;36.70;30.50;;;;;;5076642;28;20851;-83
2022/08/10 12:00:22;;;;;;;2.03;1.93;;;37.00;29.50;;;;;;5076929;28;20454;-84
2022/08/10 12:02:54;;;;;;;2.00;1.90;;;37.30;29.10;;;;;;5076651;28;20540;-84
2022/08/10 12:05:26;;;;;;;2.30;2.10;;;37.60;28.00;;;;;;5076033;28;20451;-84
2022/08/10 12:07:56;;;;;;;2.23;2.07;;;37.60;28.00;;;;;;5077071;28;21173;-84
2022/08/10 12:10:24;;;;;;;1.67;1.50;;;37.70;28.00;;;;;;5076900;28;20450;-84
2022/08/10 12:12:58;;;;;;;1.83;1.70;;;37.60;27.40;;;;;;5077493;28;20813;-84
2022/08/10 12:15:33;;;;;;;2.43;2.10;;;37.50;27.80;;;;;;5076846;28;20455;-84
2022/08/10 12:18:04;;;;;;;1.87;1.77;;;37.70;28.40;;;;;;5076835;28;20510;-85
2022/08/10 12:20:34;;;;;;;2.30;2.20;;;37.80;27.50;;;;;;5077547;28;20450;-85
2022/08/10 12:23:10;;;;;;;2.07;1.97;;;38.00;27.10;;;;;;5076513;28;20459;-84
2022/08/10 12:25:43;;;;;;;1.90;1.80;;;38.50;27.40;;;;;;5076067;28;20470;-84
2022/08/10 12:28:21;;;;;;;1.80;1.70;;;39.00;26.80;;;;;;5075132;28;20989;-85
2022/08/10 12:30:56;;;;;;;2.20;1.93;;;39.20;26.70;;;;;;5077602;28;20512;-84
2022/08/10 12:33:28;;;;;;;2.00;1.90;;;39.60;26.00;;;;;;5078227;28;20456;-84
2022/08/10 12:36:02;;;;;;;3.37;1.90;;;39.40;26.30;;;;;;5083696;28;20450;-84
2022/08/10 12:38:39;;;;;;;2.13;2.03;;;39.40;26.30;;;;;;5076525;28;20471;-85
2022/08/10 12:41:15;;;;;;;2.00;1.80;;;39.80;26.20;;;;;;5076638;28;20893;-84
2022/08/10 12:43:50;;;;;;;1.90;1.80;;;40.40;25.70;;;;;;5076294;28;20435;-85
2022/08/10 12:46:25;;;;;;;2.20;2.10;;;40.70;24.80;;;;;;5076435;28;20442;-85
2022/08/10 12:49:00;;;;;;;4.53;2.10;;;40.30;25.40;;;;;;5076329;28;20837;-85
2022/08/10 12:51:29;;;;;;;3.80;2.30;;;40.60;24.70;;;;;;5076086;28;20490;-84
2022/08/10 12:54:01;;;;;;;2.17;2.07;;;40.70;25.10;;;;;;5075669;28;20542;-85
2022/08/10 12:56:32;;;;;;;2.10;2.00;;;40.90;25.30;;;;;;5076563;28;20451;-84
2022/08/10 12:58:59;;;;;;;2.37;1.80;;;41.10;25.30;;;;;;5076218;28;20482;-84
2022/08/10 13:01:32;;;;;;;2.30;2.20;;;41.30;24.60;;;;;;5075646;28;20949;-85
2022/08/10 13:04:03;;;;;;;2.30;2.10;;;41.70;24.20;;;;;;5076346;28;20924;-86
2022/08/10 13:06:31;;;;;;;2.00;1.90;;;42.00;24.00;;;;;;5076627;28;20451;-85
2022/08/10 13:09:11;;;;;;;2.23;2.03;;;42.40;23.50;;;;;;5076998;28;20857;-86
2022/08/10 13:11:41;;;;;;;4.20;2.30;;;42.50;24.50;;;;;;5078319;28;20523;-86
2022/08/10 13:14:13;;;;;;;2.60;2.17;;;42.80;23.10;;;;;;5076381;28;20475;-85
2022/08/10 13:16:43;;;;;;;2.20;2.00;;;43.10;23.20;;;;;;5077389;28;20458;-86
2022/08/10 13:19:14;;;;;;;2.60;2.40;;;43.10;22.80;;;;;;5076327;28;20475;-85
2022/08/10 13:21:42;;;;;;;3.40;2.20;;;43.30;22.70;;;;;;5077080;28;20428;-85
2022/08/10 13:24:12;;;;;;;1.67;1.67;;;42.90;22.90;;;;;;5083393;28;20432;-84
2022/08/10 13:26:44;;;;;;;2.47;2.03;;;42.90;22.30;;;;;;5079012;28;20459;-86
2022/08/10 13:29:16;;;;;;;2.03;1.93;;;43.00;22.40;;;;;;5076906;28;20464;-84
2022/08/10 13:31:48;;;;;;;2.07;1.97;;;42.90;22.30;;;;;;5076896;28;20487;-86
2022/08/10 13:34:19;;;;;;;2.10;2.00;;;43.10;22.80;;;;;;5077002;28;20439;-85
2022/08/10 13:36:51;;;;;;;2.00;1.80;;;43.50;22.80;;;;;;5077047;28;20462;-86
2022/08/10 13:39:20;;;;;;;2.30;2.10;;;43.80;21.10;;;;;;5077097;28;20546;-87
2022/08/10 13:41:49;;;;;;;3.93;1.77;;;44.10;21.40;;;;;;5078049;28;20443;-85
2022/08/10 13:44:26;;;;;;;1.83;1.60;;;44.30;21.10;;;;;;5077551;28;21031;-86
2022/08/10 13:46:56;;;;;;;2.00;1.90;;;44.10;21.00;;;;;;5077622;28;20446;-86
2022/08/10 13:49:24;;;;;;;2.37;1.93;;;43.90;21.00;;;;;;5078633;28;20451;-85
2022/08/10 13:51:51;;;;;;;1.83;1.73;;;43.90;21.00;;;;;;5078092;28;20562;-87
2022/08/10 13:54:20;;;;;;;2.07;1.97;;;44.00;20.90;;;;;;5078176;28;20471;-86
2022/08/10 13:56:48;;;;;;;2.40;2.20;;;43.90;21.00;;;;;;5077583;28;20530;-86
2022/08/10 13:59:15;;;;;;;2.60;2.00;;;43.30;21.70;;;;;;5078159;28;20455;-85
2022/08/10 14:01:47;;;;;;;2.40;2.20;;;41.80;22.60;;;;;;5074915;28;20449;-85
2022/08/10 14:04:17;;;;;;;1.90;1.80;;;42.10;22.10;;;;;;5060335;28;20459;-84